Time;durP1;ratioP1;P1;durP2;ratioP2;P2;SDS_P1;SDS_P2;PMS_P1;PMS_P2;Temp;Humidity;BMP_temperature;BMP_pressure;BME280_temperature;BME280_humidity;BME280_pressure;Samples;Min_cycle;Max_cycle;Signal;HPM_P1;HPM_P2
2022/12/03 00:01:37;;;;;;;9.15;6.35;;;22.10;99.90;;;;;;5035605;28;20122;-50
2022/12/03 00:04:03;;;;;;;8.30;6.15;;;22.10;99.90;;;;;;5034379;28;20462;-49
2022/12/03 00:06:29;;;;;;;9.43;6.07;;;22.10;99.90;;;;;;5035709;28;20021;-49
2022/12/03 00:08:55;;;;;;;8.52;5.72;;;22.10;99.90;;;;;;5035804;28;20032;-49
2022/12/03 00:11:20;;;;;;;7.93;6.00;;;22.10;99.90;;;;;;5035541;28;20049;-49
2022/12/03 00:13:47;;;;;;;8.38;5.88;;;22.10;99.90;;;;;;5035353;28;20044;-49
2022/12/03 00:16:12;;;;;;;6.88;5.20;;;22.10;99.90;;;;;;5035437;28;20522;-47
2022/12/03 00:18:38;;;;;;;8.13;5.75;;;22.10;99.90;;;;;;5035265;28;20120;-47
2022/12/03 00:21:04;;;;;;;7.65;5.70;;;22.10;99.90;;;;;;5035358;28;20481;-47
2022/12/03 00:23:30;;;;;;;7.70;5.38;;;22.10;99.90;;;;;;5035202;28;20021;-47
2022/12/03 00:25:55;;;;;;;9.82;5.75;;;22.00;99.90;;;;;;5035315;28;20043;-48
2022/12/03 00:28:21;;;;;;;7.70;5.00;;;22.10;99.90;;;;;;5035301;28;20032;-48
2022/12/03 00:30:47;;;;;;;8.13;6.05;;;22.00;99.90;;;;;;5035015;28;20021;-47
2022/12/03 00:33:13;;;;;;;8.95;4.97;;;22.00;99.90;;;;;;5035115;28;20017;-48
2022/12/03 00:35:39;;;;;;;7.28;5.63;;;22.00;99.90;;;;;;5034810;28;20395;-47
2022/12/03 00:38:04;;;;;;;7.55;5.07;;;22.00;99.90;;;;;;5033530;28;20428;-47
2022/12/03 00:40:30;;;;;;;7.25;4.68;;;22.00;99.90;;;;;;5033708;28;20021;-47
2022/12/03 00:42:56;;;;;;;8.20;5.53;;;22.00;99.90;;;;;;5035185;28;20021;-47
2022/12/03 00:45:22;;;;;;;6.70;5.07;;;22.00;99.90;;;;;;5033981;28;20026;-47
2022/12/03 00:47:47;;;;;;;7.75;5.50;;;22.00;99.90;;;;;;5034753;28;20026;-47
2022/12/03 00:50:13;;;;;;;7.40;4.95;;;22.00;99.90;;;;;;5034686;28;20029;-47
2022/12/03 00:52:39;;;;;;;8.13;5.05;;;22.00;99.90;;;;;;5033481;28;20056;-47
2022/12/03 00:55:05;;;;;;;8.05;5.13;;;22.00;99.90;;;;;;5033376;28;20128;-47
2022/12/03 00:57:31;;;;;;;6.70;5.07;;;21.90;99.90;;;;;;5034842;28;20410;-48
2022/12/03 00:59:56;;;;;;;7.53;5.57;;;21.90;99.90;;;;;;5032245;22;20082;-52
2022/12/03 01:02:22;;;;;;;6.10;4.90;;;21.90;99.90;;;;;;4975804;28;20058;-51
2022/12/03 01:04:48;;;;;;;7.43;5.00;;;21.90;99.90;;;;;;4974762;28;20027;-52
2022/12/03 01:07:14;;;;;;;6.57;4.78;;;21.90;99.90;;;;;;4974543;28;20038;-52
2022/12/03 01:09:39;;;;;;;7.78;5.20;;;21.90;99.90;;;;;;4975768;28;20387;-52
2022/12/03 01:12:05;;;;;;;5.70;4.65;;;21.90;99.90;;;;;;4975819;28;20035;-51
2022/12/03 01:14:31;;;;;;;6.75;5.18;;;21.90;99.90;;;;;;4975611;28;20045;-51
2022/12/03 01:16:57;;;;;;;6.85;5.05;;;21.80;99.90;;;;;;4974507;28;20030;-52
2022/12/03 01:19:23;;;;;;;6.97;4.75;;;21.80;99.90;;;;;;4975610;28;20030;-51
2022/12/03 01:21:50;;;;;;;8.05;5.22;;;21.90;99.90;;;;;;4974156;28;20073;-52
2022/12/03 01:24:17;;;;;;;7.75;5.20;;;21.80;99.90;;;;;;4975454;28;20027;-52
2022/12/03 01:26:44;;;;;;;6.43;4.75;;;21.80;99.90;;;;;;4975571;28;20030;-52
2022/12/03 01:29:10;;;;;;;6.68;5.10;;;21.80;99.90;;;;;;4975413;28;20030;-52
2022/12/03 01:34:19;;;;;;;7.78;5.13;;;21.80;99.90;;;;;;4975581;28;20058;-52
2022/12/03 01:36:45;;;;;;;6.78;5.20;;;21.80;99.90;;;;;;4975146;28;20067;-52
2022/12/03 01:39:11;;;;;;;8.48;5.15;;;21.70;99.90;;;;;;4975150;28;20023;-53
2022/12/03 01:41:37;;;;;;;6.65;5.28;;;21.70;99.90;;;;;;4975040;28;20097;-53
2022/12/03 01:44:16;;;;;;;7.28;4.90;;;21.70;99.90;;;;;;4975249;28;20031;-52
2022/12/03 01:46:43;;;;;;;6.00;4.78;;;21.70;99.90;;;;;;4975082;28;20059;-53
2022/12/03 01:49:41;;;;;;;6.93;4.57;;;21.70;99.90;;;;;;4974898;28;20023;-52
2022/12/03 01:52:11;;;;;;;7.40;5.05;;;21.70;99.90;;;;;;4974844;28;20479;-52
2022/12/03 01:54:41;;;;;;;6.35;5.20;;;21.70;99.90;;;;;;4974813;28;20411;-53
2022/12/03 01:57:19;;;;;;;6.90;5.32;;;21.70;99.90;;;;;;4974774;28;20085;-52
2022/12/03 01:59:45;;;;;;;7.80;5.40;;;21.70;99.90;;;;;;4975269;28;20049;-52
2022/12/03 02:02:20;;;;;;;8.52;5.68;;;21.70;99.90;;;;;;4974840;28;20030;-52
2022/12/03 02:04:46;;;;;;;6.97;5.05;;;21.70;99.90;;;;;;4974705;28;20084;-53
2022/12/03 02:07:19;;;;;;;8.82;5.05;;;21.60;99.90;;;;;;4974600;28;20479;-53
2022/12/03 02:09:45;;;;;;;7.88;5.50;;;21.60;99.90;;;;;;4974707;28;20110;-52
2022/12/03 02:12:13;;;;;;;8.50;5.45;;;21.60;99.90;;;;;;4974504;28;20114;-51
2022/12/03 02:14:39;;;;;;;9.50;6.03;;;21.60;99.90;;;;;;4974441;28;20672;-52
2022/12/03 02:17:04;;;;;;;8.65;5.85;;;21.60;99.90;;;;;;4974532;28;20030;-52
2022/12/03 02:19:30;;;;;;;9.23;6.15;;;21.60;99.90;;;;;;4974390;28;20484;-52
2022/12/03 02:22:03;;;;;;;6.72;5.05;;;21.60;99.90;;;;;;4974542;28;20082;-52
2022/12/03 02:24:54;;;;;;;7.68;5.88;;;21.60;99.90;;;;;;4974482;28;20019;-51
2022/12/03 02:27:21;;;;;;;9.48;6.10;;;21.60;99.90;;;;;;4974241;28;20050;-51
2022/12/03 02:29:46;;;;;;;8.82;5.60;;;21.60;99.90;;;;;;4974188;28;20045;-52
2022/12/03 02:32:12;;;;;;;9.18;5.78;;;21.60;99.90;;;;;;4974327;28;20471;-53
2022/12/03 02:34:39;;;;;;;9.50;6.10;;;21.60;99.90;;;;;;4974055;28;20033;-52
2022/12/03 02:37:09;;;;;;;9.85;6.05;;;21.60;99.90;;;;;;4974334;28;20073;-51
2022/12/03 02:39:37;;;;;;;7.03;5.55;;;21.60;99.90;;;;;;4974330;28;20027;-51
2022/12/03 02:44:48;;;;;;;8.80;5.70;;;21.60;99.90;;;;;;4974248;28;20040;-51
2022/12/03 02:47:14;;;;;;;8.23;5.80;;;21.50;99.90;;;;;;4974026;28;20031;-52
2022/12/03 02:49:41;;;;;;;8.10;5.70;;;21.50;99.90;;;;;;4973924;28;20027;-53
2022/12/03 02:52:06;;;;;;;8.23;5.50;;;21.50;99.90;;;;;;4974163;28;20027;-51
2022/12/03 02:54:32;;;;;;;9.45;6.50;;;21.50;99.90;;;;;;4973919;28;20369;-52
2022/12/03 02:56:58;;;;;;;11.82;6.00;;;21.50;99.90;;;;;;4973908;28;20446;-52
2022/12/03 03:01:52;;;;;;;10.07;6.53;;;21.40;99.90;;;;;;5010948;28;20073;-55
2022/12/03 03:04:18;;;;;;;8.02;6.30;;;21.50;99.90;;;;;;5012818;28;20030;-58
2022/12/03 03:06:45;;;;;;;7.82;5.82;;;21.50;99.90;;;;;;5012721;28;20497;-59
2022/12/03 03:09:11;;;;;;;9.35;6.63;;;21.40;99.90;;;;;;5012190;28;20017;-61
2022/12/03 03:11:37;;;;;;;9.05;6.45;;;21.40;99.90;;;;;;5011437;28;20488;-60
2022/12/03 03:14:03;;;;;;;8.95;6.00;;;21.40;99.90;;;;;;5012589;28;20026;-60
2022/12/03 03:16:28;;;;;;;8.55;5.95;;;21.40;99.90;;;;;;5012512;28;20076;-58
2022/12/03 03:18:54;;;;;;;8.32;6.38;;;21.40;99.90;;;;;;5012453;28;20509;-61
2022/12/03 03:21:20;;;;;;;8.77;6.43;;;21.40;99.90;;;;;;5012485;28;20041;-60
2022/12/03 03:23:46;;;;;;;9.60;6.32;;;21.40;99.90;;;;;;5012499;28;20033;-58
2022/12/03 03:26:13;;;;;;;8.65;5.80;;;21.40;99.90;;;;;;5012483;28;20023;-58
2022/12/03 03:28:44;;;;;;;7.75;6.05;;;21.40;99.90;;;;;;5012754;28;20022;-58
2022/12/03 03:31:13;;;;;;;10.70;6.63;;;21.40;99.90;;;;;;5012717;28;20489;-57
2022/12/03 03:33:40;;;;;;;7.15;5.53;;;21.40;99.90;;;;;;5012774;28;20026;-58
2022/12/03 03:36:07;;;;;;;8.20;6.20;;;21.40;99.90;;;;;;5012452;28;20104;-59
2022/12/03 03:38:33;;;;;;;7.95;6.22;;;21.40;99.90;;;;;;5012212;28;20021;-58
2022/12/03 03:41:02;;;;;;;7.70;5.60;;;21.40;99.90;;;;;;5012359;28;20050;-57
2022/12/03 03:43:29;;;;;;;9.23;6.47;;;21.30;99.90;;;;;;5011031;28;20025;-58
2022/12/03 03:45:55;;;;;;;9.10;6.63;;;21.30;99.90;;;;;;5012524;28;20025;-58
2022/12/03 03:48:22;;;;;;;8.93;6.55;;;21.30;99.90;;;;;;5012380;28;20037;-60
2022/12/03 03:50:49;;;;;;;9.40;5.90;;;21.30;99.90;;;;;;5012209;28;20029;-58
2022/12/03 03:53:15;;;;;;;9.25;6.75;;;21.30;99.90;;;;;;5012432;28;20029;-58
2022/12/03 03:55:41;;;;;;;8.90;6.35;;;21.30;99.90;;;;;;5012350;28;20099;-57
2022/12/03 03:58:10;;;;;;;8.43;6.53;;;21.30;99.90;;;;;;5012165;28;20030;-57
2022/12/03 04:00:36;;;;;;;10.10;6.80;;;21.30;99.90;;;;;;5044358;22;20059;-54
2022/12/03 04:03:03;;;;;;;10.32;6.82;;;21.30;99.90;;;;;;5051816;28;20100;-54
2022/12/03 04:05:29;;;;;;;9.40;6.38;;;21.30;99.90;;;;;;5051832;28;20025;-53
2022/12/03 04:07:55;;;;;;;9.75;6.65;;;21.30;99.90;;;;;;5051783;28;20052;-53
2022/12/03 04:13:05;;;;;;;9.43;6.75;;;21.20;99.90;;;;;;5052047;28;20071;-54
2022/12/03 04:15:31;;;;;;;7.80;5.85;;;21.30;99.90;;;;;;5051560;28;20028;-54
2022/12/03 04:20:41;;;;;;;8.25;5.60;;;21.30;99.90;;;;;;5053622;28;20036;-53
2022/12/03 04:23:07;;;;;;;8.48;5.93;;;21.20;99.90;;;;;;5055501;28;20025;-53
2022/12/03 04:35:41;;;;;;;9.40;6.32;;;21.20;99.90;;;;;;5055278;28;20067;-55
2022/12/03 04:36:30;;;;;;;8.32;6.22;;;21.20;99.90;;;;;;5054874;28;20120;-54
2022/12/03 04:39:06;;;;;;;10.45;6.47;;;21.20;99.90;;;;;;5053645;28;20053;-57
2022/12/03 04:41:32;;;;;;;11.82;7.32;;;21.20;99.90;;;;;;5053761;28;20041;-53
2022/12/03 04:46:41;;;;;;;8.88;6.88;;;21.20;99.90;;;;;;5055070;28;20039;-54
2022/12/03 04:49:07;;;;;;;9.35;6.45;;;21.20;99.90;;;;;;5054743;28;20021;-53
2022/12/03 04:51:33;;;;;;;8.85;5.68;;;21.20;99.90;;;;;;5053333;28;20025;-53
2022/12/03 04:53:59;;;;;;;8.10;6.30;;;21.10;99.90;;;;;;5054876;28;20488;-54
2022/12/03 04:56:24;;;;;;;9.25;6.20;;;21.20;99.90;;;;;;5053345;28;20036;-53
2022/12/03 04:58:50;;;;;;;11.45;7.65;;;21.10;99.90;;;;;;5054447;28;20028;-53
2022/12/03 05:01:16;;;;;;;8.32;6.00;;;21.10;99.90;;;;;;5066092;22;20056;-47
2022/12/03 05:03:42;;;;;;;10.18;6.95;;;21.10;99.90;;;;;;5054695;28;20036;-47
2022/12/03 05:06:07;;;;;;;12.07;6.32;;;21.10;99.90;;;;;;5054240;28;20078;-47
2022/12/03 05:08:33;;;;;;;12.73;7.90;;;21.20;99.90;;;;;;5054332;28;20017;-48
2022/12/03 05:10:59;;;;;;;12.60;8.57;;;21.10;99.90;;;;;;5053100;28;20116;-49
2022/12/03 05:13:24;;;;;;;11.55;6.55;;;21.10;99.90;;;;;;5054052;28;20099;-48
2022/12/03 05:15:50;;;;;;;20.48;12.13;;;21.20;99.90;;;;;;5053985;28;20560;-48
2022/12/03 05:18:16;;;;;;;11.05;7.45;;;21.10;99.90;;;;;;5054408;28;20021;-48
2022/12/03 05:20:42;;;;;;;9.88;6.78;;;21.10;99.90;;;;;;5054389;28;20029;-48
2022/12/03 05:23:12;;;;;;;9.43;6.45;;;21.10;99.90;;;;;;5054020;28;20477;-48
2022/12/03 05:25:38;;;;;;;9.27;6.90;;;21.10;99.90;;;;;;5053939;28;20090;-48
2022/12/03 05:28:05;;;;;;;10.05;6.72;;;21.10;99.90;;;;;;5053897;28;20021;-48
2022/12/03 05:30:31;;;;;;;9.35;6.68;;;21.10;99.90;;;;;;5053404;28;20047;-48
2022/12/03 05:32:57;;;;;;;10.30;6.03;;;21.10;99.90;;;;;;5053821;28;20025;-48
2022/12/03 05:35:23;;;;;;;9.27;6.40;;;21.10;99.90;;;;;;5053613;28;20029;-47
2022/12/03 05:37:49;;;;;;;11.10;6.18;;;21.10;99.90;;;;;;5052671;28;20112;-48
2022/12/03 05:40:15;;;;;;;9.27;6.32;;;21.10;99.90;;;;;;5054037;28;20047;-48
2022/12/03 05:42:52;;;;;;;9.27;6.45;;;21.10;99.90;;;;;;5053747;28;20355;-48
2022/12/03 05:45:38;;;;;;;;;;;21.10;99.90;;;;;;5054256;28;20048;-48
2022/12/03 05:48:12;;;;;;;12.10;6.38;;;21.10;99.90;;;;;;5053649;28;19912;-48
2022/12/03 05:50:42;;;;;;;10.27;6.70;;;21.10;99.90;;;;;;5053629;28;20032;-47
2022/12/03 05:53:07;;;;;;;8.82;6.30;;;21.10;99.90;;;;;;5053673;28;20032;-48
2022/12/03 05:55:33;;;;;;;13.88;7.35;;;21.10;99.90;;;;;;5053500;28;20393;-48
2022/12/03 05:57:59;;;;;;;10.60;7.43;;;21.10;99.90;;;;;;5053339;28;20480;-48
2022/12/03 06:00:27;;;;;;;12.52;7.55;;;21.10;99.90;;;;;;5053394;28;20045;-48
2022/12/03 06:02:53;;;;;;;11.98;6.50;;;21.10;99.90;;;;;;5053374;28;20021;-48
2022/12/03 06:05:20;;;;;;;9.30;6.95;;;21.10;99.90;;;;;;5053486;28;20025;-48
2022/12/03 06:07:47;;;;;;;11.13;7.50;;;21.10;99.90;;;;;;5053370;28;20017;-48
2022/12/03 06:10:15;;;;;;;8.68;6.32;;;21.00;99.90;;;;;;5053279;28;20439;-48
2022/12/03 06:12:41;;;;;;;13.52;6.95;;;21.00;99.90;;;;;;5053132;28;20029;-48
2022/12/03 06:15:08;;;;;;;11.63;7.90;;;21.00;99.90;;;;;;5053176;28;20033;-48
2022/12/03 06:17:34;;;;;;;11.18;7.38;;;21.00;99.90;;;;;;5053226;28;20063;-48
2022/12/03 06:20:00;;;;;;;12.23;7.65;;;21.00;99.90;;;;;;5053056;28;20106;-48
2022/12/03 06:22:26;;;;;;;9.25;6.93;;;21.00;99.90;;;;;;5053042;28;20025;-48
2022/12/03 06:24:52;;;;;;;9.63;6.53;;;21.00;99.90;;;;;;5052998;28;20049;-48
2022/12/03 06:27:18;;;;;;;9.82;6.82;;;21.00;99.90;;;;;;5053116;28;20052;-48
2022/12/03 06:29:44;;;;;;;12.52;6.95;;;21.00;99.90;;;;;;5052896;28;20040;-48
2022/12/03 06:32:10;;;;;;;10.52;7.20;;;21.00;99.90;;;;;;5052835;28;20100;-48
2022/12/03 06:34:35;;;;;;;12.07;8.13;;;21.00;99.90;;;;;;5052749;28;20421;-48
2022/12/03 06:37:01;;;;;;;10.02;7.22;;;21.00;99.90;;;;;;5052739;28;20055;-48
2022/12/03 06:39:27;;;;;;;10.55;7.45;;;21.00;99.90;;;;;;5052792;28;20039;-48
2022/12/03 06:41:53;;;;;;;11.02;7.45;;;21.00;99.90;;;;;;5052557;28;20107;-48
2022/12/03 06:44:18;;;;;;;10.05;7.03;;;21.00;99.90;;;;;;5050783;28;20385;-48
2022/12/03 06:46:44;;;;;;;9.88;6.97;;;21.00;99.90;;;;;;5052574;28;20055;-48
2022/12/03 06:49:10;;;;;;;12.35;7.13;;;21.00;99.90;;;;;;5052496;28;20056;-48
2022/12/03 06:51:36;;;;;;;9.80;6.82;;;20.90;99.90;;;;;;5052526;28;20470;-48
2022/12/03 06:54:03;;;;;;;9.95;6.65;;;20.90;99.90;;;;;;5052370;28;20376;-48
2022/12/03 06:56:28;;;;;;;12.02;7.60;;;20.90;99.90;;;;;;5052426;28;20037;-48
2022/12/03 06:58:54;;;;;;;9.88;6.63;;;20.90;99.90;;;;;;5052598;28;20036;-48
2022/12/03 07:01:20;;;;;;;10.73;6.60;;;20.90;99.90;;;;;;5052421;28;20083;-48
2022/12/03 07:03:46;;;;;;;9.52;6.90;;;20.90;99.90;;;;;;5052339;28;20025;-48
2022/12/03 07:06:12;;;;;;;9.60;6.32;;;20.90;99.90;;;;;;5052371;28;20150;-48
2022/12/03 07:08:39;;;;;;;9.52;6.57;;;20.90;99.90;;;;;;5052079;28;20029;-48
2022/12/03 07:11:29;;;;;;;9.65;6.68;;;20.90;99.90;;;;;;5050947;28;20127;-48
2022/12/03 07:13:50;;;;;;;10.50;6.40;;;20.90;99.90;;;;;;5052268;28;20068;-48
2022/12/03 07:16:16;;;;;;;10.40;6.47;;;20.90;99.90;;;;;;5052090;28;20126;-48
2022/12/03 07:18:42;;;;;;;9.18;6.07;;;20.90;99.90;;;;;;5052192;28;20059;-47
2022/12/03 07:21:07;;;;;;;10.82;6.82;;;20.90;99.90;;;;;;5051953;28;20078;-48
2022/12/03 07:23:33;;;;;;;8.23;6.00;;;20.80;99.90;;;;;;5051956;28;20029;-48
2022/12/03 07:25:59;;;;;;;7.80;5.72;;;20.90;99.90;;;;;;5067625;28;20021;-48
2022/12/03 07:28:25;;;;;;;9.80;6.53;;;20.90;99.90;;;;;;5052245;28;20377;-48
2022/12/03 07:30:50;;;;;;;7.40;5.82;;;20.80;99.90;;;;;;5052110;28;20056;-49
2022/12/03 07:33:16;;;;;;;10.25;6.18;;;20.80;99.90;;;;;;5051860;28;20393;-49
2022/12/03 07:35:42;;;;;;;10.52;6.28;;;20.80;99.90;;;;;;5051882;28;20127;-48
2022/12/03 07:38:07;;;;;;;9.55;6.03;;;20.80;99.90;;;;;;5051743;28;20032;-49
2022/12/03 07:40:33;;;;;;;8.45;5.72;;;20.80;99.90;;;;;;5051896;28;20036;-48
2022/12/03 07:42:59;;;;;;;8.77;5.93;;;20.80;99.90;;;;;;5051881;28;20021;-49
2022/12/03 07:45:24;;;;;;;9.13;5.78;;;20.80;99.90;;;;;;5052113;28;20044;-49
2022/12/03 07:47:50;;;;;;;10.25;6.72;;;20.80;99.90;;;;;;5051802;28;20504;-49
2022/12/03 07:50:16;;;;;;;8.35;5.90;;;20.80;99.90;;;;;;5051771;28;20090;-48
2022/12/03 07:52:42;;;;;;;8.32;5.80;;;20.80;99.90;;;;;;5052228;28;20017;-48
2022/12/03 07:55:09;;;;;;;7.90;5.80;;;20.80;99.90;;;;;;5054059;28;20142;-48
2022/12/03 07:57:35;;;;;;;10.07;6.43;;;20.80;99.90;;;;;;5055699;28;20072;-49
2022/12/03 08:00:00;;;;;;;9.27;6.07;;;20.80;99.90;;;;;;5055677;28;20045;-49
2022/12/03 08:02:26;;;;;;;7.00;5.40;;;20.80;99.90;;;;;;5055574;28;20032;-49
2022/12/03 08:04:52;;;;;;;7.88;5.93;;;20.80;99.90;;;;;;5055435;28;20484;-49
2022/12/03 08:07:17;;;;;;;7.20;5.80;;;20.80;99.90;;;;;;5055329;28;20094;-49
2022/12/03 08:09:43;;;;;;;6.57;5.10;;;20.80;99.90;;;;;;5055340;28;20021;-49
2022/12/03 08:12:38;;;;;;;8.55;5.63;;;20.80;99.90;;;;;;5055480;28;20040;-49
2022/12/03 08:15:12;;;;;;;7.15;5.35;;;20.80;99.90;;;;;;5055309;28;20041;-48
2022/12/03 08:17:39;;;;;;;7.88;5.53;;;20.80;99.90;;;;;;5055290;28;20090;-48
2022/12/03 08:20:18;;;;;;;7.60;5.72;;;20.80;99.90;;;;;;5055374;28;20079;-48
2022/12/03 08:22:46;;;;;;;8.00;5.70;;;20.80;99.90;;;;;;5055282;28;20462;-48
2022/12/03 08:25:20;;;;;;;8.38;5.80;;;20.80;99.90;;;;;;5055190;28;20021;-49
2022/12/03 08:27:45;;;;;;;8.13;5.50;;;20.80;99.90;;;;;;5053806;28;20401;-49
2022/12/03 08:30:13;;;;;;;9.68;6.18;;;20.80;99.90;;;;;;5054855;28;20025;-48
2022/12/03 08:32:40;;;;;;;8.20;5.72;;;20.80;99.90;;;;;;5054850;28;20512;-48
2022/12/03 08:35:20;;;;;;;8.75;6.28;;;20.80;99.90;;;;;;5054842;28;20473;-48
2022/12/03 08:37:47;;;;;;;8.52;5.55;;;20.80;99.90;;;;;;5054879;28;20055;-48
2022/12/03 08:40:22;;;;;;;7.43;5.90;;;20.80;99.90;;;;;;5055011;28;20021;-48
2022/12/03 08:42:48;;;;;;;7.43;5.53;;;20.80;99.90;;;;;;5054776;28;20045;-48
2022/12/03 08:45:38;;;;;;;8.02;5.38;;;20.80;99.90;;;;;;5054904;28;20060;-48
2022/12/03 08:48:25;;;;;;;8.43;6.07;;;20.80;99.90;;;;;;5054788;28;20024;-48
2022/12/03 08:50:57;;;;;;;8.85;5.75;;;20.80;99.90;;;;;;5054563;28;20048;-49
2022/12/03 08:53:31;;;;;;;7.55;5.82;;;20.80;99.90;;;;;;5054642;28;20032;-49
2022/12/03 08:56:03;;;;;;;9.02;6.15;;;20.80;99.90;;;;;;5054705;28;20033;-48
2022/12/03 08:58:37;;;;;;;8.13;5.63;;;20.80;99.90;;;;;;5054697;28;20025;-48
2022/12/03 09:01:11;;;;;;;7.72;5.63;;;20.80;99.90;;;;;;5054309;28;20049;-49
2022/12/03 09:03:53;;;;;;;8.07;5.60;;;20.80;99.90;;;;;;5054367;28;20039;-49
2022/12/03 09:06:20;;;;;;;9.35;5.43;;;20.80;99.90;;;;;;5053711;28;20036;-49
2022/12/03 09:08:45;;;;;;;9.45;5.72;;;20.80;99.90;;;;;;5054376;28;20021;-48
2022/12/03 09:11:11;;;;;;;9.57;6.13;;;20.80;99.90;;;;;;5069868;28;20047;-49
2022/12/03 09:13:37;;;;;;;7.85;5.65;;;20.80;99.90;;;;;;5054318;28;20025;-48
2022/12/03 09:16:03;;;;;;;7.35;5.22;;;20.80;99.90;;;;;;5054034;28;20041;-48
2022/12/03 09:18:29;;;;;;;7.97;5.90;;;20.90;99.90;;;;;;5054363;28;20053;-48
2022/12/03 09:20:55;;;;;;;8.25;4.68;;;20.90;99.90;;;;;;5053983;28;20025;-49
2022/12/03 09:23:22;;;;;;;8.30;5.87;;;20.90;99.90;;;;;;5054069;28;20064;-48
2022/12/03 09:25:47;;;;;;;7.68;5.60;;;20.90;99.90;;;;;;5054114;28;20104;-49
2022/12/03 09:28:13;;;;;;;9.45;5.97;;;20.90;99.90;;;;;;5054156;28;20100;-48
2022/12/03 09:30:39;;;;;;;6.93;4.93;;;20.90;99.90;;;;;;5053832;28;20025;-49
2022/12/03 09:33:05;;;;;;;11.48;6.60;;;20.90;99.90;;;;;;5053864;28;20028;-49
2022/12/03 09:35:31;;;;;;;10.20;6.57;;;21.00;99.90;;;;;;5054019;28;20065;-48
2022/12/03 09:37:56;;;;;;;7.50;5.28;;;21.00;99.90;;;;;;5053882;28;20104;-49
2022/12/03 09:40:22;;;;;;;8.75;5.63;;;21.00;99.90;;;;;;5053909;28;20072;-48
2022/12/03 09:42:49;;;;;;;7.45;5.65;;;21.00;99.90;;;;;;5053824;28;20025;-49
2022/12/03 09:45:16;;;;;;;7.53;5.57;;;21.00;99.90;;;;;;5053636;28;20025;-49
2022/12/03 09:47:45;;;;;;;7.95;5.20;;;21.00;99.90;;;;;;5053691;28;20136;-49
2022/12/03 09:50:18;;;;;;;8.27;5.07;;;21.10;99.90;;;;;;5053646;28;20021;-48
2022/12/03 09:52:45;;;;;;;9.25;5.30;;;21.00;99.90;;;;;;5053614;28;20021;-48
2022/12/03 09:55:19;;;;;;;6.50;4.67;;;21.00;99.90;;;;;;5053546;28;20036;-49
2022/12/03 09:57:45;;;;;;;8.27;5.47;;;21.00;99.90;;;;;;5053349;28;20270;-48
2022/12/03 10:00:25;;;;;;;5.85;4.53;;;21.00;99.90;;;;;;5053182;28;20383;-48
2022/12/03 10:02:56;;;;;;;7.10;5.03;;;21.10;99.90;;;;;;5053315;28;20032;-48
2022/12/03 10:05:22;;;;;;;8.63;5.03;;;21.10;99.90;;;;;;5053404;28;20017;-49
2022/12/03 10:07:50;;;;;;;6.40;4.60;;;21.10;99.90;;;;;;5053226;28;20027;-48
2022/12/03 10:10:19;;;;;;;7.82;5.22;;;21.10;99.90;;;;;;5053141;28;20033;-49
2022/12/03 10:12:44;;;;;;;6.45;4.75;;;21.10;99.90;;;;;;5053254;28;20032;-48
2022/12/03 10:15:16;;;;;;;7.70;4.88;;;21.10;99.90;;;;;;5052983;28;20025;-48
2022/12/03 10:17:44;;;;;;;7.97;5.07;;;21.10;99.90;;;;;;5052167;28;20025;-48
2022/12/03 10:20:12;;;;;;;6.82;4.45;;;21.10;99.90;;;;;;5051596;28;20025;-47
2022/12/03 10:22:38;;;;;;;8.55;4.38;;;21.20;99.90;;;;;;5052905;28;20036;-48
2022/12/03 10:25:09;;;;;;;6.78;4.75;;;21.20;99.90;;;;;;5053145;28;20025;-47
2022/12/03 10:27:35;;;;;;;7.60;5.13;;;21.20;99.90;;;;;;5053276;28;20043;-47
2022/12/03 10:30:03;;;;;;;6.30;4.28;;;21.30;99.90;;;;;;5052910;28;20099;-48
2022/12/03 10:32:43;;;;;;;10.18;5.57;;;21.20;99.90;;;;;;5052676;28;20075;-47
2022/12/03 10:35:12;;;;;;;6.63;4.60;;;21.30;99.90;;;;;;5052545;28;20029;-48
2022/12/03 10:38:06;;;;;;;8.13;4.90;;;21.30;99.90;;;;;;5052647;28;20035;-47
2022/12/03 10:40:34;;;;;;;6.93;4.93;;;21.30;99.90;;;;;;5052517;28;20016;-48
2022/12/03 10:43:18;;;;;;;6.32;4.63;;;21.30;99.90;;;;;;5052675;28;20040;-47
2022/12/03 10:45:48;;;;;;;6.15;5.07;;;21.30;99.90;;;;;;5051488;28;20560;-48
2022/12/03 10:48:18;;;;;;;6.03;4.65;;;21.30;99.90;;;;;;5052418;28;20430;-47
2022/12/03 10:51:16;;;;;;;6.40;4.85;;;21.40;99.90;;;;;;5052314;28;20017;-48
2022/12/03 10:53:42;;;;;;;8.00;4.85;;;21.30;99.90;;;;;;5052297;28;20017;-48
2022/12/03 10:56:16;;;;;;;6.38;4.47;;;21.40;99.90;;;;;;5052561;28;20037;-49
2022/12/03 10:58:42;;;;;;;6.50;4.85;;;21.40;99.90;;;;;;5052146;28;20025;-48
2022/12/03 11:01:17;;;;;;;6.18;4.88;;;21.40;99.90;;;;;;5052302;28;20049;-48
2022/12/03 11:03:44;;;;;;;7.10;5.10;;;21.40;99.90;;;;;;5052258;28;20033;-48
2022/12/03 11:06:21;;;;;;;6.90;4.35;;;21.40;99.90;;;;;;5052237;28;20381;-48
2022/12/03 11:08:49;;;;;;;7.43;5.25;;;21.50;99.90;;;;;;5052120;28;20025;-48
2022/12/03 11:11:27;;;;;;;6.05;4.85;;;21.50;99.90;;;;;;5052096;28;20029;-48
2022/12/03 11:13:58;;;;;;;7.40;5.15;;;21.50;99.90;;;;;;5052086;28;20025;-48
2022/12/03 11:16:39;;;;;;;7.38;5.35;;;21.50;99.90;;;;;;5052071;28;20122;-48
2022/12/03 11:19:38;;;;;;;8.85;5.05;;;21.60;99.90;;;;;;5052175;28;20021;-48
2022/12/03 11:22:04;;;;;;;6.15;4.75;;;21.60;99.90;;;;;;5051907;28;20021;-48
2022/12/03 11:24:37;;;;;;;10.20;5.63;;;21.70;99.90;;;;;;5051814;28;20354;-48
2022/12/03 11:27:03;;;;;;;7.57;5.20;;;21.70;99.90;;;;;;5051821;28;20096;-48
2022/12/03 11:29:50;;;;;;;7.32;5.55;;;21.80;99.90;;;;;;5051446;28;20114;-48
2022/12/03 11:32:37;;;;;;;8.50;5.20;;;21.80;99.90;;;;;;5051932;28;20017;-48
2022/12/03 11:35:35;;;;;;;;;;;21.90;99.90;;;;;;5052151;28;20025;-48
2022/12/03 11:38:40;;;;;;;8.50;5.20;;;21.90;99.90;;;;;;5039528;28;19916;-48
2022/12/03 11:41:09;;;;;;;7.18;5.13;;;21.90;99.90;;;;;;5050464;28;20122;-48
2022/12/03 11:44:24;;;;;;;8.45;5.93;;;22.00;99.90;;;;;;5051730;28;20024;-48
2022/12/03 11:46:50;;;;;;;7.25;5.22;;;22.00;99.90;;;;;;5042472;28;20033;-48
2022/12/03 11:49:35;;;;;;;8.00;5.85;;;22.00;99.90;;;;;;5051644;28;20033;-49
2022/12/03 11:52:16;;;;;;;7.20;5.45;;;22.00;99.90;;;;;;5051759;28;20130;-49
2022/12/03 11:54:52;;;;;;;8.35;5.70;;;22.00;99.90;;;;;;5067560;28;20031;-48
2022/12/03 11:57:34;;;;;;;8.23;5.70;;;22.10;99.90;;;;;;5051721;28;20139;-49
2022/12/03 12:00:19;;;;;;;8.00;5.15;;;22.10;99.90;;;;;;5051377;28;20029;-49
2022/12/03 12:02:45;;;;;;;6.90;5.90;;;22.10;99.90;;;;;;5051704;28;20040;-48
2022/12/03 12:05:23;;;;;;;8.25;6.22;;;22.10;99.90;;;;;;5051667;28;20029;-48
2022/12/03 12:07:49;;;;;;;;;;;22.10;99.90;;;;;;5052048;28;20114;-48
2022/12/03 12:10:42;;;;;;;7.03;5.47;;;22.10;99.90;;;;;;5051449;28;19905;-48
2022/12/03 12:13:34;;;;;;;7.95;6.05;;;22.10;99.90;;;;;;5046253;28;20052;-48
2022/12/03 12:16:04;;;;;;;8.77;6.43;;;22.10;99.90;;;;;;5027355;28;20048;-48
2022/12/03 12:18:47;;;;;;;8.05;5.18;;;22.10;99.90;;;;;;5051466;28;20151;-48
2022/12/03 12:21:47;;;;;;;7.13;5.95;;;22.10;99.90;;;;;;5051689;28;20021;-48
2022/12/03 12:24:40;;;;;;;8.25;5.72;;;22.10;99.90;;;;;;5051555;28;20027;-48
2022/12/03 12:27:09;;;;;;;11.77;6.68;;;22.10;99.90;;;;;;5051547;28;20063;-48
2022/12/03 12:29:37;;;;;;;8.90;6.47;;;22.10;99.90;;;;;;5051331;28;20020;-48
2022/12/03 12:32:09;;;;;;;9.35;6.40;;;22.10;99.90;;;;;;5051468;28;20017;-48
2022/12/03 12:34:40;;;;;;;9.68;6.35;;;22.20;99.90;;;;;;5051498;28;20032;-48
2022/12/03 12:37:18;;;;;;;8.07;6.30;;;22.20;99.90;;;;;;5051440;28;20033;-48
2022/12/03 12:39:44;;;;;;;7.75;5.45;;;22.30;99.90;;;;;;5051559;28;20023;-49
2022/12/03 12:42:31;;;;;;;9.02;6.53;;;22.40;99.90;;;;;;5053724;28;20100;-48
2022/12/03 12:45:16;;;;;;;9.38;6.45;;;22.40;99.90;;;;;;5054849;28;20032;-48
2022/12/03 12:48:13;;;;;;;9.10;6.72;;;22.50;99.90;;;;;;5054995;28;20032;-48
2022/12/03 12:50:40;;;;;;;9.43;5.90;;;22.50;99.90;;;;;;5054612;28;20104;-48
2022/12/03 12:53:23;;;;;;;9.75;6.43;;;22.50;99.90;;;;;;5054673;28;20108;-49
2022/12/03 12:56:10;;;;;;;7.45;5.90;;;22.60;99.90;;;;;;5054598;28;20036;-48
2022/12/03 12:58:36;;;;;;;8.18;6.30;;;22.60;99.90;;;;;;5054560;28;20072;-48
2022/12/03 13:01:10;;;;;;;10.32;6.57;;;22.70;99.90;;;;;;5054314;28;20073;-48
2022/12/03 13:03:38;;;;;;;8.25;6.15;;;22.80;99.90;;;;;;5054562;28;20029;-48
2022/12/03 13:06:04;;;;;;;7.65;6.03;;;22.80;99.90;;;;;;5054466;28;20032;-48
2022/12/03 13:08:36;;;;;;;10.23;6.57;;;22.80;99.90;;;;;;5054346;28;20025;-49
2022/12/03 13:11:02;;;;;;;9.23;5.88;;;22.80;99.90;;;;;;5054362;28;20029;-48
2022/12/03 13:13:42;;;;;;;8.27;5.80;;;22.90;99.90;;;;;;5054091;28;20061;-48
2022/12/03 13:16:18;;;;;;;10.75;5.90;;;22.90;99.90;;;;;;5054241;28;20056;-48
2022/12/03 13:18:47;;;;;;;11.25;7.03;;;22.90;99.90;;;;;;5054489;28;20025;-48
2022/12/03 13:21:23;;;;;;;8.68;5.53;;;22.90;99.90;;;;;;5054221;28;20338;-49
2022/12/03 13:23:56;;;;;;;8.27;5.65;;;23.00;99.90;;;;;;5054147;28;20025;-48